sensor_id;sensor_type;location;lat;lon;timestamp;temperature;humidity
7248;DHT22;3665;51.034;13.642;2024-01-30T02:44:58;0.30;98.80
7248;DHT22;3665;51.034;13.642;2024-01-30T03:18:27;0.10;99.90
7248;DHT22;3665;51.034;13.642;2024-01-30T03:25:01;0.10;99.90
7248;DHT22;3665;51.034;13.642;2024-01-30T03:31:36;0.10;99.90
7248;DHT22;3665;51.034;13.642;2024-01-30T03:38:00;0.10;99.90
7248;DHT22;3665;51.034;13.642;2024-01-30T03:44:36;0.20;99.90
7248;DHT22;3665;51.034;13.642;2024-01-30T03:50:15;0.20;99.90
7248;DHT22;3665;51.034;13.642;2024-01-30T04:01:48;0.30;99.90
7248;DHT22;3665;51.034;13.642;2024-01-30T04:07:48;0.40;99.90
7248;DHT22;3665;51.034;13.642;2024-01-30T04:14:37;0.40;94.70
7248;DHT22;3665;51.034;13.642;2024-01-30T04:26:05;0.30;97.20
7248;DHT22;3665;51.034;13.642;2024-01-30T04:32:47;0.40;77.00
7248;DHT22;3665;51.034;13.642;2024-01-30T04:38:18;0.30;74.70
7248;DHT22;3665;51.034;13.642;2024-01-30T04:43:05;0.40;90.30
7248;DHT22;3665;51.034;13.642;2024-01-30T04:47:52;0.30;81.40
7248;DHT22;3665;51.034;13.642;2024-01-30T04:52:38;0.30;89.00
7248;DHT22;3665;51.034;13.642;2024-01-30T04:57:28;0.30;96.30
7248;DHT22;3665;51.034;13.642;2024-01-30T05:02:17;0.30;82.30
7248;DHT22;3665;51.034;13.642;2024-01-30T05:07:06;0.30;64.70
7248;DHT22;3665;51.034;13.642;2024-01-30T05:11:56;0.40;69.70
7248;DHT22;3665;51.034;13.642;2024-01-30T05:16:40;0.30;81.60
7248;DHT22;3665;51.034;13.642;2024-01-30T05:21:29;0.20;88.30
7248;DHT22;3665;51.034;13.642;2024-01-30T05:26:16;0.20;99.90
7248;DHT22;3665;51.034;13.642;2024-01-30T05:31:04;0.30;93.50
7248;DHT22;3665;51.034;13.642;2024-01-30T05:35:52;0.30;97.00
7248;DHT22;3665;51.034;13.642;2024-01-30T05:40:41;0.40;57.50
7248;DHT22;3665;51.034;13.642;2024-01-30T05:45:28;0.40;46.60
7248;DHT22;3665;51.034;13.642;2024-01-30T05:50:14;0.40;58.50
7248;DHT22;3665;51.034;13.642;2024-01-30T05:54:58;0.30;59.10
7248;DHT22;3665;51.034;13.642;2024-01-30T05:59:54;0.30;66.70
7248;DHT22;3665;51.034;13.642;2024-01-30T06:04:39;0.10;99.00
7248;DHT22;3665;51.034;13.642;2024-01-30T06:09:29;0.20;98.00
7248;DHT22;3665;51.034;13.642;2024-01-30T06:14:15;0.20;95.80
7248;DHT22;3665;51.034;13.642;2024-01-30T06:19:08;0.10;97.90
7248;DHT22;3665;51.034;13.642;2024-01-30T06:23:51;0.10;99.90
7248;DHT22;3665;51.034;13.642;2024-01-30T06:28:34;0.20;99.90
7248;DHT22;3665;51.034;13.642;2024-01-30T06:33:20;0.20;99.90
7248;DHT22;3665;51.034;13.642;2024-01-30T06:38:08;0.30;99.90
7248;DHT22;3665;51.034;13.642;2024-01-30T06:42:52;0.20;99.90
7248;DHT22;3665;51.034;13.642;2024-01-30T06:47:36;0.10;99.90
7248;DHT22;3665;51.034;13.642;2024-01-30T06:52:23;0.40;99.40
7248;DHT22;3665;51.034;13.642;2024-01-30T06:57:15;0.50;81.00
7248;DHT22;3665;51.034;13.642;2024-01-30T07:02:01;0.50;89.40
7248;DHT22;3665;51.034;13.642;2024-01-30T07:06:47;0.50;70.40
7248;DHT22;3665;51.034;13.642;2024-01-30T07:11:36;0.50;62.70
7248;DHT22;3665;51.034;13.642;2024-01-30T07:16:24;0.50;77.40
7248;DHT22;3665;51.034;13.642;2024-01-30T07:21:13;0.70;75.40
7248;DHT22;3665;51.034;13.642;2024-01-30T07:25:57;0.70;73.40
7248;DHT22;3665;51.034;13.642;2024-01-30T07:30:41;0.90;51.80
7248;DHT22;3665;51.034;13.642;2024-01-30T07:35:36;1.10;17.10
7248;DHT22;3665;51.034;13.642;2024-01-30T07:40:22;1.20;1.00
7248;DHT22;3665;51.034;13.642;2024-01-30T07:45:10;1.50;1.00
7248;DHT22;3665;51.034;13.642;2024-01-30T07:49:59;1.60;1.00
7248;DHT22;3665;51.034;13.642;2024-01-30T07:55:04;1.80;1.00
7248;DHT22;3665;51.034;13.642;2024-01-30T07:59:52;2.10;1.00
7248;DHT22;3665;51.034;13.642;2024-01-30T08:04:41;2.30;1.00
7248;DHT22;3665;51.034;13.642;2024-01-30T08:09:28;2.50;1.00
7248;DHT22;3665;51.034;13.642;2024-01-30T08:14:16;2.90;1.00
7248;DHT22;3665;51.034;13.642;2024-01-30T08:19:05;3.10;1.00
7248;DHT22;3665;51.034;13.642;2024-01-30T08:23:51;3.40;1.00
7248;DHT22;3665;51.034;13.642;2024-01-30T08:28:40;3.50;1.00
7248;DHT22;3665;51.034;13.642;2024-01-30T08:33:46;3.70;1.00
7248;DHT22;3665;51.034;13.642;2024-01-30T08:38:31;3.90;1.00
7248;DHT22;3665;51.034;13.642;2024-01-30T08:43:44;4.00;1.00
7248;DHT22;3665;51.034;13.642;2024-01-30T09:38:57;6.20;1.00
7248;DHT22;3665;51.034;13.642;2024-01-30T09:43:57;6.30;1.00
7248;DHT22;3665;51.034;13.642;2024-01-30T09:48:41;6.30;1.00
7248;DHT22;3665;51.034;13.642;2024-01-30T09:53:31;6.50;1.00
7248;DHT22;3665;51.034;13.642;2024-01-30T09:58:16;6.70;1.00
7248;DHT22;3665;51.034;13.642;2024-01-30T10:03:06;6.90;1.00
7248;DHT22;3665;51.034;13.642;2024-01-30T10:07:53;7.00;1.00
7248;DHT22;3665;51.034;13.642;2024-01-30T10:12:40;7.10;1.00
7248;DHT22;3665;51.034;13.642;2024-01-30T10:17:29;7.20;1.00
7248;DHT22;3665;51.034;13.642;2024-01-30T10:22:15;7.30;1.00
7248;DHT22;3665;51.034;13.642;2024-01-30T10:27:06;7.30;1.00
7248;DHT22;3665;51.034;13.642;2024-01-30T10:31:58;7.50;1.00
7248;DHT22;3665;51.034;13.642;2024-01-30T10:36:46;7.40;1.00
7248;DHT22;3665;51.034;13.642;2024-01-30T10:41:47;7.60;1.00
7248;DHT22;3665;51.034;13.642;2024-01-30T10:46:32;7.70;1.00
7248;DHT22;3665;51.034;13.642;2024-01-30T10:51:24;7.80;1.00
7248;DHT22;3665;51.034;13.642;2024-01-30T10:56:10;7.90;1.00
7248;DHT22;3665;51.034;13.642;2024-01-30T11:00:55;8.00;1.00
7248;DHT22;3665;51.034;13.642;2024-01-30T11:05:48;7.90;1.00
7248;DHT22;3665;51.034;13.642;2024-01-30T11:10:33;7.80;1.00
7248;DHT22;3665;51.034;13.642;2024-01-30T11:15:38;7.70;1.00
7248;DHT22;3665;51.034;13.642;2024-01-30T11:20:26;7.70;1.00
7248;DHT22;3665;51.034;13.642;2024-01-30T11:25:14;7.70;1.00
7248;DHT22;3665;51.034;13.642;2024-01-30T11:30:01;7.50;1.00
7248;DHT22;3665;51.034;13.642;2024-01-30T11:35:04;7.40;1.00
7248;DHT22;3665;51.034;13.642;2024-01-30T11:39:55;7.20;1.00
7248;DHT22;3665;51.034;13.642;2024-01-30T11:44:39;7.20;1.00
7248;DHT22;3665;51.034;13.642;2024-01-30T11:49:30;7.30;1.00
7248;DHT22;3665;51.034;13.642;2024-01-30T11:54:16;7.30;1.00
7248;DHT22;3665;51.034;13.642;2024-01-30T11:59:10;7.00;1.00
7248;DHT22;3665;51.034;13.642;2024-01-30T12:04:32;6.90;1.00
7248;DHT22;3665;51.034;13.642;2024-01-30T12:09:29;6.80;1.00
7248;DHT22;3665;51.034;13.642;2024-01-30T12:14:16;6.70;1.00
7248;DHT22;3665;51.034;13.642;2024-01-30T12:19:05;6.70;1.00
7248;DHT22;3665;51.034;13.642;2024-01-30T12:23:52;6.80;1.00
7248;DHT22;3665;51.034;13.642;2024-01-30T12:28:56;6.70;1.00
7248;DHT22;3665;51.034;13.642;2024-01-30T12:33:40;6.70;1.00
7248;DHT22;3665;51.034;13.642;2024-01-30T12:38:33;6.80;1.00
7248;DHT22;3665;51.034;13.642;2024-01-30T12:43:19;6.90;1.00
7248;DHT22;3665;51.034;13.642;2024-01-30T12:48:26;6.80;1.00
7248;DHT22;3665;51.034;13.642;2024-01-30T12:53:11;6.60;1.00
7248;DHT22;3665;51.034;13.642;2024-01-30T12:58:01;6.70;1.00
7248;DHT22;3665;51.034;13.642;2024-01-30T13:02:50;6.70;1.00
7248;DHT22;3665;51.034;13.642;2024-01-30T13:07:37;6.50;1.00
7248;DHT22;3665;51.034;13.642;2024-01-30T13:12:24;6.80;1.00
7248;DHT22;3665;51.034;13.642;2024-01-30T13:17:14;6.90;1.00
7248;DHT22;3665;51.034;13.642;2024-01-30T13:22:01;6.70;1.00
7248;DHT22;3665;51.034;13.642;2024-01-30T13:26:49;6.80;1.00
7248;DHT22;3665;51.034;13.642;2024-01-30T13:31:35;6.70;1.00
7248;DHT22;3665;51.034;13.642;2024-01-30T13:36:27;6.70;1.00
7248;DHT22;3665;51.034;13.642;2024-01-30T13:41:11;6.60;1.00
7248;DHT22;3665;51.034;13.642;2024-01-30T13:45:58;6.50;1.00
7248;DHT22;3665;51.034;13.642;2024-01-30T13:50:47;6.30;1.00
7248;DHT22;3665;51.034;13.642;2024-01-30T13:55:35;6.20;1.00
7248;DHT22;3665;51.034;13.642;2024-01-30T14:00:24;6.10;1.00
7248;DHT22;3665;51.034;13.642;2024-01-30T14:05:12;6.20;1.00
7248;DHT22;3665;51.034;13.642;2024-01-30T14:10:00;6.00;1.00
7248;DHT22;3665;51.034;13.642;2024-01-30T14:14:49;5.90;1.00
7248;DHT22;3665;51.034;13.642;2024-01-30T14:19:36;5.90;1.00
7248;DHT22;3665;51.034;13.642;2024-01-30T14:24:25;5.80;1.00
7248;DHT22;3665;51.034;13.642;2024-01-30T14:29:11;5.70;1.00
7248;DHT22;3665;51.034;13.642;2024-01-30T14:34:01;5.80;1.00
7248;DHT22;3665;51.034;13.642;2024-01-30T14:38:54;5.60;1.00
7248;DHT22;3665;51.034;13.642;2024-01-30T14:43:53;5.50;1.00
7248;DHT22;3665;51.034;13.642;2024-01-30T14:48:42;5.40;1.00
7248;DHT22;3665;51.034;13.642;2024-01-30T14:53:29;5.20;1.00
7248;DHT22;3665;51.034;13.642;2024-01-30T14:58:16;5.20;1.00
7248;DHT22;3665;51.034;13.642;2024-01-30T15:03:05;4.90;1.00
7248;DHT22;3665;51.034;13.642;2024-01-30T15:07:52;4.80;1.00
7248;DHT22;3665;51.034;13.642;2024-01-30T15:13:11;4.60;1.00
7248;DHT22;3665;51.034;13.642;2024-01-30T15:23:38;4.10;1.00
7248;DHT22;3665;51.034;13.642;2024-01-30T15:41:15;3.60;1.00
7248;DHT22;3665;51.034;13.642;2024-01-30T15:46:27;3.40;1.00
7248;DHT22;3665;51.034;13.642;2024-01-30T15:51:19;3.30;1.00
7248;DHT22;3665;51.034;13.642;2024-01-30T15:56:09;3.20;1.00
7248;DHT22;3665;51.034;13.642;2024-01-30T16:00:57;3.10;1.00
7248;DHT22;3665;51.034;13.642;2024-01-30T16:05:44;3.00;1.00
7248;DHT22;3665;51.034;13.642;2024-01-30T16:10:33;2.80;1.00
7248;DHT22;3665;51.034;13.642;2024-01-30T16:15:25;2.80;1.00
7248;DHT22;3665;51.034;13.642;2024-01-30T16:20:39;2.60;1.00
7248;DHT22;3665;51.034;13.642;2024-01-30T16:25:31;2.50;1.00
7248;DHT22;3665;51.034;13.642;2024-01-30T16:30:17;2.50;1.00
7248;DHT22;3665;51.034;13.642;2024-01-30T16:35:04;2.30;1.00
7248;DHT22;3665;51.034;13.642;2024-01-30T16:45:15;2.20;1.00
7248;DHT22;3665;51.034;13.642;2024-01-30T16:50:40;2.10;1.00
7248;DHT22;3665;51.034;13.642;2024-01-30T16:55:33;2.10;1.00
7248;DHT22;3665;51.034;13.642;2024-01-30T17:00:47;1.90;1.00
7248;DHT22;3665;51.034;13.642;2024-01-30T17:06:18;2.10;1.00
7248;DHT22;3665;51.034;13.642;2024-01-30T17:11:27;1.90;1.00
7248;DHT22;3665;51.034;13.642;2024-01-30T17:16:29;1.80;1.00
7248;DHT22;3665;51.034;13.642;2024-01-30T17:21:16;1.80;1.00
7248;DHT22;3665;51.034;13.642;2024-01-30T17:26:16;1.90;1.00
7248;DHT22;3665;51.034;13.642;2024-01-30T17:31:21;1.80;1.00
7248;DHT22;3665;51.034;13.642;2024-01-30T17:36:25;1.80;1.00
7248;DHT22;3665;51.034;13.642;2024-01-30T17:41:20;1.70;1.00
7248;DHT22;3665;51.034;13.642;2024-01-30T17:46:17;1.60;1.00
7248;DHT22;3665;51.034;13.642;2024-01-30T17:51:27;1.50;1.00
7248;DHT22;3665;51.034;13.642;2024-01-30T17:56:23;1.40;1.00
7248;DHT22;3665;51.034;13.642;2024-01-30T18:01:13;1.40;1.00
